createdAt,value
2023-02-25T00:02:10.549Z,96.47
2023-02-25T00:04:42.535Z,96.95
2023-02-25T00:07:11.429Z,96.24
2023-02-25T00:09:40.251Z,96.23
2023-02-25T00:12:09.296Z,96.17
2023-02-25T00:14:37.977Z,96.25
2023-02-25T00:17:07.098Z,96.54
2023-02-25T00:19:36.229Z,96.33
2023-02-25T00:22:06.525Z,95.85
2023-02-25T00:24:35.262Z,96.33
2023-02-25T00:27:04.016Z,95.92
2023-02-25T00:29:33.016Z,96.25
2023-02-25T00:32:01.845Z,96.11
2023-02-25T00:34:31.099Z,96.07
2023-02-25T00:36:59.872Z,96.15
2023-02-25T00:39:42.520Z,96.43
2023-02-25T00:42:11.841Z,95.93
2023-02-25T00:44:41.039Z,96.17
2023-02-25T00:47:10.048Z,96.47
2023-02-25T00:49:40.283Z,96.46
2023-02-25T00:52:09.288Z,96.13
2023-02-25T00:54:39.723Z,96.22
2023-02-25T00:57:08.590Z,95.45
2023-02-25T00:59:37.978Z,95.76
2023-02-25T01:02:06.851Z,95.66
2023-02-25T01:04:35.497Z,96.23
2023-02-25T01:07:04.316Z,95.99
2023-02-25T01:09:34.689Z,96.12
2023-02-25T01:12:06.615Z,95.79
2023-02-25T01:14:35.521Z,95.47
2023-02-25T01:17:06.153Z,95.92
2023-02-25T01:19:34.922Z,95.04
2023-02-25T01:22:03.816Z,95.57
2023-02-25T01:24:35.090Z,95.64
2023-02-25T01:27:07.314Z,95.57
2023-02-25T01:29:40.552Z,95.98
2023-02-25T01:32:14.784Z,95.33
2023-02-25T01:34:44.105Z,96.11
2023-02-25T01:37:12.782Z,95.80
2023-02-25T01:39:42.345Z,95.62
2023-02-25T01:42:16.000Z,95.10
2023-02-25T01:45:17.622Z,95.51
2023-02-25T01:47:50.418Z,95.45
2023-02-25T01:50:19.879Z,95.81
2023-02-25T01:52:49.107Z,95.08
2023-02-25T01:55:17.873Z,94.97
2023-02-25T01:57:48.386Z,96.22
2023-02-25T02:00:18.937Z,95.67
2023-02-25T02:02:50.799Z,96.18
2023-02-25T02:05:20.817Z,95.56
2023-02-25T02:07:49.798Z,94.92
2023-02-25T02:10:20.109Z,95.54
2023-02-25T02:12:50.548Z,95.86
2023-02-25T02:15:19.442Z,95.79
2023-02-25T02:17:57.232Z,95.09
2023-02-25T02:20:28.909Z,95.62
2023-02-25T02:23:22.367Z,95.07
2023-02-25T02:26:14.061Z,95.34
2023-02-25T02:29:04.577Z,95.48
2023-02-25T02:31:43.094Z,95.33
2023-02-25T02:34:26.494Z,94.71
2023-02-25T02:37:06.067Z,95.48
2023-02-25T02:39:51.648Z,94.76
2023-02-25T02:42:32.485Z,94.90
2023-02-25T02:45:08.600Z,94.51
2023-02-25T02:47:40.797Z,94.43
2023-02-25T02:50:13.495Z,94.18
2023-02-25T02:52:47.792Z,93.89
2023-02-25T02:55:23.837Z,93.51
2023-02-25T02:57:59.756Z,93.15
2023-02-25T03:00:32.052Z,93.14
2023-02-25T03:03:09.562Z,93.03
2023-02-25T03:05:42.540Z,92.29
2023-02-25T03:08:15.980Z,93.06
2023-02-25T03:10:46.790Z,92.53
2023-02-25T03:13:17.038Z,91.77
2023-02-25T03:15:46.014Z,91.50
2023-02-25T03:18:23.973Z,92.30
2023-02-25T03:20:56.322Z,91.13
2023-02-25T03:23:30.684Z,90.76
2023-02-25T03:26:12.161Z,90.94
2023-02-25T03:28:43.089Z,90.90
2023-02-25T03:31:21.914Z,90.07
2023-02-25T03:33:56.422Z,90.41
2023-02-25T03:36:30.109Z,90.20
2023-02-25T03:39:02.821Z,89.56
2023-02-25T03:41:36.142Z,90.08
2023-02-25T03:44:10.852Z,90.32
2023-02-25T03:46:44.568Z,90.23
2023-02-25T03:49:22.778Z,89.58
2023-02-25T03:51:57.411Z,89.15
2023-02-25T03:54:27.707Z,89.46
2023-02-25T03:56:57.173Z,90.05
2023-02-25T03:59:28.535Z,89.47
2023-02-25T04:02:00.348Z,89.86
2023-02-25T04:04:30.675Z,89.23
2023-02-25T04:06:59.493Z,89.72
2023-02-25T04:09:28.475Z,89.44
2023-02-25T04:11:57.281Z,88.84
2023-02-25T04:14:26.483Z,88.34
2023-02-25T04:16:55.284Z,88.82
2023-02-25T04:19:24.066Z,88.50
2023-02-25T04:21:54.342Z,88.10
2023-02-25T04:24:23.186Z,88.40
2023-02-25T04:26:58.660Z,88.63
2023-02-25T04:29:27.524Z,87.99
2023-02-25T04:31:56.490Z,88.00
2023-02-25T04:34:25.211Z,87.85
2023-02-25T04:36:55.762Z,87.58
2023-02-25T04:39:24.565Z,87.79
2023-02-25T04:41:53.272Z,87.45
2023-02-25T04:44:22.060Z,87.56
2023-02-25T04:46:52.242Z,87.23
2023-02-25T04:49:22.854Z,86.99
2023-02-25T04:51:52.707Z,87.09
2023-02-25T04:54:23.323Z,86.49
2023-02-25T04:56:52.080Z,86.51
2023-02-25T04:59:20.817Z,86.78
2023-02-25T05:01:49.734Z,86.70
2023-02-25T05:04:18.525Z,86.61
2023-02-25T05:06:47.229Z,86.47
2023-02-25T05:09:16.816Z,85.72
2023-02-25T05:11:46.971Z,86.06
2023-02-25T05:14:15.888Z,85.43
2023-02-25T05:16:44.721Z,85.91
2023-02-25T05:19:17.560Z,85.91
2023-02-25T05:21:46.328Z,85.71
2023-02-25T05:24:15.028Z,85.54
2023-02-25T05:26:43.938Z,86.07
2023-02-25T05:29:14.149Z,85.49
2023-02-25T05:31:43.084Z,85.40
2023-02-25T05:34:12.072Z,85.16
2023-02-25T05:36:41.756Z,85.12
2023-02-25T05:39:14.717Z,84.91
2023-02-25T05:41:43.470Z,84.91
2023-02-25T05:44:13.722Z,84.58
2023-02-25T05:46:42.458Z,84.50
2023-02-25T05:49:11.577Z,85.04
2023-02-25T05:51:40.762Z,84.80
2023-02-25T05:54:09.574Z,84.31
2023-02-25T05:56:38.391Z,84.39
2023-02-25T05:59:07.433Z,84.36
2023-02-25T06:01:37.603Z,84.30
2023-02-25T06:04:06.424Z,83.86
2023-02-25T06:06:35.140Z,83.84
2023-02-25T06:09:06.956Z,83.83
2023-02-25T06:11:35.723Z,83.53
2023-02-25T06:14:04.939Z,83.72
2023-02-25T06:16:33.887Z,83.11
2023-02-25T06:19:04.283Z,83.40
2023-02-25T06:21:33.018Z,83.53
2023-02-25T06:24:04.194Z,83.77
2023-02-25T06:26:35.757Z,83.59
2023-02-25T06:29:04.556Z,83.63
2023-02-25T06:31:34.876Z,83.63
2023-02-25T06:34:05.492Z,83.75
2023-02-25T06:36:34.936Z,83.69
2023-02-25T06:39:03.617Z,83.48
2023-02-25T06:41:32.507Z,83.12
2023-02-25T06:44:01.265Z,82.59
2023-02-25T06:46:30.403Z,82.07
2023-02-25T06:48:59.127Z,82.13
2023-02-25T06:51:29.239Z,81.28
2023-02-25T06:53:58.182Z,81.00
2023-02-25T06:56:27.039Z,80.29
2023-02-25T06:58:57.069Z,80.32
2023-02-25T07:01:27.220Z,80.07
2023-02-25T07:03:55.530Z,80.10
2023-02-25T07:06:24.435Z,80.03
2023-02-25T07:08:54.773Z,79.92
2023-02-25T07:11:34.021Z,79.77
2023-02-25T07:14:03.113Z,79.58
2023-02-25T07:16:31.850Z,79.54
2023-02-25T07:19:01.843Z,79.27
2023-02-25T07:21:31.256Z,79.41
2023-02-25T07:24:01.557Z,78.83
2023-02-25T07:26:31.728Z,78.30
2023-02-25T07:29:01.198Z,78.46
2023-02-25T07:31:30.303Z,78.17
2023-02-25T07:34:03.854Z,77.74
2023-02-25T07:36:35.478Z,76.89
2023-02-25T07:39:07.418Z,77.27
2023-02-25T07:41:37.295Z,76.95
2023-02-25T07:44:07.469Z,76.27
2023-02-25T07:46:36.155Z,76.07
2023-02-25T07:49:05.409Z,75.90
2023-02-25T07:51:34.307Z,75.51
2023-02-25T07:54:03.220Z,75.17
2023-02-25T07:56:33.799Z,74.88
2023-02-25T07:59:02.543Z,74.68
2023-02-25T08:01:34.350Z,74.17
2023-02-25T08:04:06.585Z,74.82
2023-02-25T08:06:39.097Z,74.88
2023-02-25T08:09:11.276Z,74.99
2023-02-25T08:11:43.052Z,75.05
2023-02-25T08:14:12.235Z,74.77
2023-02-25T08:16:40.991Z,74.87
2023-02-25T08:19:09.884Z,74.77
2023-02-25T08:21:40.770Z,75.33
2023-02-25T08:24:10.140Z,74.73
2023-02-25T08:26:39.031Z,74.55
2023-02-25T08:29:09.253Z,74.00
2023-02-25T08:31:38.200Z,74.40
2023-02-25T08:34:07.350Z,73.96
2023-02-25T08:36:37.208Z,73.10
2023-02-25T08:39:06.112Z,72.67
2023-02-25T08:41:34.859Z,70.90
2023-02-25T08:44:03.509Z,71.13
2023-02-25T08:46:35.755Z,69.89
2023-02-25T08:49:05.490Z,69.91
2023-02-25T08:51:39.095Z,68.85
2023-02-25T08:54:12.229Z,68.79
2023-02-25T08:56:44.889Z,67.70
2023-02-25T08:59:16.408Z,67.89
2023-02-25T09:01:46.955Z,68.58
2023-02-25T09:04:17.904Z,68.34
2023-02-25T09:06:48.010Z,68.03
2023-02-25T09:09:17.516Z,68.08
2023-02-25T09:11:46.890Z,67.95
2023-02-25T09:14:16.394Z,68.90
2023-02-25T09:16:47.063Z,68.98
2023-02-25T09:19:18.277Z,67.77
2023-02-25T09:21:48.590Z,67.73
2023-02-25T09:24:17.904Z,67.02
2023-02-25T09:26:46.635Z,67.22
2023-02-25T09:29:15.679Z,67.29
2023-02-25T09:31:44.619Z,65.81
2023-02-25T09:34:15.538Z,66.28
2023-02-25T09:36:44.516Z,65.20
2023-02-25T09:39:13.837Z,65.21
2023-02-25T09:41:50.586Z,64.37
2023-02-25T09:44:23.030Z,64.25
2023-02-25T09:46:54.886Z,64.37
2023-02-25T09:49:31.696Z,64.44
2023-02-25T09:52:07.617Z,63.73
2023-02-25T09:54:40.778Z,63.76
2023-02-25T09:57:19.249Z,64.26
2023-02-25T09:59:49.409Z,64.92
2023-02-25T10:02:22.579Z,64.65
2023-02-25T10:05:18.492Z,64.80
2023-02-25T10:08:00.328Z,63.94
2023-02-25T10:10:36.966Z,63.36
2023-02-25T10:13:19.462Z,63.53
2023-02-25T10:15:59.411Z,63.12
2023-02-25T10:18:42.486Z,61.93
2023-02-25T10:21:25.343Z,62.61
2023-02-25T10:24:12.701Z,62.19
2023-02-25T10:26:44.312Z,62.53
2023-02-25T10:29:17.643Z,61.89
2023-02-25T10:31:46.895Z,61.44
2023-02-25T10:34:26.307Z,60.96
2023-02-25T10:36:59.332Z,61.07
2023-02-25T10:39:31.731Z,61.30
2023-02-25T10:42:00.556Z,61.81
2023-02-25T10:44:29.302Z,61.93
2023-02-25T10:47:03.677Z,61.47
2023-02-25T10:49:38.365Z,61.25
2023-02-25T10:52:15.884Z,61.81
2023-02-25T10:54:50.331Z,61.66
2023-02-25T10:57:26.178Z,61.81
2023-02-25T11:00:04.176Z,61.91
2023-02-25T11:02:39.463Z,61.71
2023-02-25T11:05:29.256Z,61.03
2023-02-25T11:07:59.120Z,61.24
2023-02-25T11:10:27.792Z,60.57
2023-02-25T11:12:59.588Z,59.89
2023-02-25T11:15:50.138Z,59.98
2023-02-25T11:18:23.952Z,60.73
2023-02-25T11:20:56.569Z,60.68
2023-02-25T11:23:40.130Z,60.02
2023-02-25T11:26:10.050Z,60.30
2023-02-25T11:28:40.741Z,60.14
2023-02-25T11:31:14.542Z,59.21
2023-02-25T11:33:51.042Z,59.43
2023-02-25T11:36:23.801Z,59.11
2023-02-25T11:39:15.035Z,59.59
2023-02-25T11:41:45.574Z,59.73
2023-02-25T11:44:28.484Z,59.57
2023-02-25T11:47:02.551Z,58.95
2023-02-25T11:49:50.972Z,58.38
2023-02-25T11:52:26.690Z,59.16
2023-02-25T11:55:12.892Z,58.35
2023-02-25T11:57:58.829Z,57.98
2023-02-25T12:00:33.555Z,57.66
2023-02-25T12:03:17.157Z,58.11
2023-02-25T12:05:53.946Z,57.96
2023-02-25T12:08:40.728Z,57.65
2023-02-25T12:11:42.810Z,58.21
2023-02-25T12:14:40.293Z,58.24
2023-02-25T12:17:40.745Z,58.78
2023-02-25T12:20:35.025Z,58.57
2023-02-25T12:23:32.237Z,58.58
2023-02-25T12:26:11.007Z,58.98
2023-02-25T12:28:53.036Z,59.38
2023-02-25T12:31:44.022Z,58.58
2023-02-25T12:34:38.353Z,58.78
2023-02-25T12:37:31.191Z,58.36
2023-02-25T12:40:22.177Z,58.06
2023-02-25T12:43:04.218Z,59.07
2023-02-25T12:45:54.020Z,58.15
2023-02-25T12:48:50.594Z,58.37
2023-02-25T12:51:42.354Z,57.58
2023-02-25T12:54:30.425Z,56.71
2023-02-25T12:57:23.216Z,56.80
2023-02-25T13:00:27.344Z,56.26
2023-02-25T13:03:21.931Z,56.22
2023-02-25T13:06:09.119Z,56.41
2023-02-25T13:08:51.251Z,55.71
2023-02-25T13:11:37.984Z,55.90
2023-02-25T13:14:36.753Z,57.58
2023-02-25T13:17:35.624Z,58.20
2023-02-25T13:20:25.328Z,57.75
2023-02-25T13:23:00.370Z,57.55
2023-02-25T13:25:47.240Z,58.17
2023-02-25T13:28:35.626Z,58.11
2023-02-25T13:31:10.696Z,57.50
2023-02-25T13:33:58.887Z,57.37
2023-02-25T13:36:54.693Z,57.98
2023-02-25T13:39:46.997Z,57.22
2023-02-25T13:42:43.561Z,58.27
2023-02-25T13:45:30.899Z,58.30
2023-02-25T13:48:11.528Z,59.24
2023-02-25T13:50:54.598Z,59.08
2023-02-25T13:53:53.600Z,58.23
2023-02-25T13:56:40.363Z,58.38
2023-02-25T13:59:27.202Z,58.88
2023-02-25T14:02:07.190Z,58.66
2023-02-25T14:04:56.790Z,58.17
2023-02-25T14:07:34.949Z,58.18
2023-02-25T14:10:23.058Z,57.86
2023-02-25T14:13:16.332Z,58.99
2023-02-25T14:15:56.919Z,59.29
2023-02-25T14:18:44.545Z,58.90
2023-02-25T14:21:46.791Z,59.15
2023-02-25T14:24:25.688Z,59.71
2023-02-25T14:27:07.471Z,61.31
2023-02-25T14:29:58.126Z,61.73
2023-02-25T14:32:45.000Z,61.33
2023-02-25T14:35:34.547Z,60.84
2023-02-25T14:38:09.435Z,61.12
2023-02-25T14:40:46.549Z,60.77
2023-02-25T14:43:32.515Z,60.96
2023-02-25T14:46:15.578Z,60.91
2023-02-25T14:48:50.318Z,60.49
2023-02-25T14:51:48.017Z,60.77
2023-02-25T14:54:55.719Z,60.54
2023-02-25T14:58:00.575Z,59.75
2023-02-25T15:00:51.827Z,60.37
2023-02-25T15:03:59.163Z,60.44
2023-02-25T15:07:01.063Z,61.04
2023-02-25T15:10:06.002Z,60.79
2023-02-25T15:12:51.637Z,60.96
2023-02-25T15:15:46.859Z,60.81
2023-02-25T15:18:42.972Z,60.89
2023-02-25T15:21:37.270Z,61.66
2023-02-25T15:24:11.682Z,61.95
2023-02-25T15:26:46.853Z,62.41
2023-02-25T15:29:47.485Z,63.00
2023-02-25T15:32:24.772Z,62.69
2023-02-25T15:35:00.155Z,64.57
2023-02-25T15:37:34.883Z,66.65
2023-02-25T15:40:45.463Z,68.11
2023-02-25T15:43:36.042Z,68.93
2023-02-25T15:46:30.609Z,69.93
2023-02-25T15:49:15.097Z,70.78
2023-02-25T15:51:47.649Z,71.08
2023-02-25T15:54:42.476Z,71.93
2023-02-25T15:57:37.215Z,72.28
2023-02-25T16:00:43.899Z,72.53
2023-02-25T16:03:28.947Z,73.11
2023-02-25T16:06:03.629Z,72.85
2023-02-25T16:08:40.036Z,73.59
2023-02-25T16:11:20.892Z,73.90
2023-02-25T16:13:50.337Z,74.04
2023-02-25T16:16:23.167Z,74.02
2023-02-25T16:18:54.647Z,74.01
2023-02-25T16:21:29.166Z,74.18
2023-02-25T16:24:00.766Z,74.46
2023-02-25T16:26:45.461Z,74.04
2023-02-25T16:29:29.056Z,73.70
2023-02-25T16:32:05.414Z,73.50
2023-02-25T16:34:40.959Z,73.57
2023-02-25T16:37:18.561Z,73.64
2023-02-25T16:39:47.680Z,73.60
2023-02-25T16:42:20.696Z,73.04
2023-02-25T16:45:00.307Z,71.94
2023-02-25T16:47:31.933Z,71.00
2023-02-25T16:50:04.172Z,70.42
2023-02-25T16:52:37.550Z,70.23
2023-02-25T16:55:12.996Z,69.73
2023-02-25T16:57:41.874Z,69.61
2023-02-25T17:00:21.561Z,69.90
2023-02-25T17:02:53.715Z,70.03
2023-02-25T17:05:30.402Z,69.88
2023-02-25T17:08:02.200Z,69.76
2023-02-25T17:10:33.721Z,70.03
2023-02-25T17:13:05.403Z,70.51
2023-02-25T17:15:37.890Z,71.07
2023-02-25T17:18:16.980Z,70.58
2023-02-25T17:20:46.080Z,71.00
2023-02-25T17:23:16.965Z,71.19
2023-02-25T17:25:49.107Z,72.01
2023-02-25T17:28:23.729Z,72.04
2023-02-25T17:30:53.210Z,73.04
2023-02-25T17:33:27.117Z,73.10
2023-02-25T17:35:58.996Z,73.56
2023-02-25T17:38:29.242Z,73.88
2023-02-25T17:40:59.471Z,73.71
2023-02-25T17:43:36.544Z,73.65
2023-02-25T17:46:17.951Z,72.88
2023-02-25T17:48:54.306Z,73.00
2023-02-25T17:51:33.481Z,72.66
2023-02-25T17:54:08.372Z,72.66
2023-02-25T17:56:38.207Z,72.75
2023-02-25T17:59:09.459Z,72.98
2023-02-25T18:01:49.280Z,72.89
2023-02-25T18:04:27.877Z,73.21
2023-02-25T18:06:57.006Z,73.14
2023-02-25T18:09:40.611Z,73.31
2023-02-25T18:12:23.636Z,72.96
2023-02-25T18:14:57.031Z,73.63
2023-02-25T18:17:28.394Z,73.96
2023-02-25T18:20:00.527Z,73.61
2023-02-25T18:22:35.404Z,74.17
2023-02-25T18:25:07.877Z,73.98
2023-02-25T18:27:38.137Z,74.10
2023-02-25T18:30:19.006Z,74.00
2023-02-25T18:32:48.427Z,74.27
2023-02-25T18:35:19.796Z,74.42
2023-02-25T18:37:51.364Z,73.93
2023-02-25T18:40:26.311Z,73.85
2023-02-25T18:42:55.396Z,74.45
2023-02-25T18:45:26.544Z,74.09
2023-02-25T18:47:57.086Z,74.42
2023-02-25T18:50:30.404Z,75.18
2023-02-25T18:52:59.835Z,74.64
2023-02-25T18:55:31.329Z,75.41
2023-02-25T18:58:01.305Z,75.34
2023-02-25T19:00:30.316Z,74.59
2023-02-25T19:03:01.245Z,74.79
2023-02-25T19:05:32.071Z,74.52
2023-02-25T19:08:01.220Z,74.76
2023-02-25T19:10:31.914Z,74.37
2023-02-25T19:13:04.255Z,74.01
2023-02-25T19:15:33.219Z,74.05
2023-02-25T19:18:01.976Z,74.59
2023-02-25T19:20:32.283Z,74.59
2023-02-25T19:23:01.026Z,73.91
2023-02-25T19:25:32.425Z,74.63
2023-02-25T19:28:01.314Z,74.56
2023-02-25T19:30:34.255Z,74.87
2023-02-25T19:33:04.904Z,74.95
2023-02-25T19:35:37.886Z,75.34
2023-02-25T19:38:08.640Z,74.92
2023-02-25T19:40:38.482Z,75.33
2023-02-25T19:43:08.106Z,75.64
2023-02-25T19:45:36.549Z,75.60
2023-02-25T19:48:05.661Z,76.32
2023-02-25T19:50:37.272Z,75.75
2023-02-25T19:53:06.851Z,76.02
2023-02-25T19:55:35.686Z,76.53
2023-02-25T19:58:04.407Z,76.26
2023-02-25T20:00:33.846Z,77.05
2023-02-25T20:03:02.722Z,76.68
2023-02-25T20:05:32.487Z,76.95
2023-02-25T20:08:02.844Z,77.39
2023-02-25T20:10:31.609Z,76.62
2023-02-25T20:13:00.136Z,77.00
2023-02-25T20:15:29.363Z,76.44
2023-02-25T20:17:58.077Z,76.51
2023-02-25T20:20:26.865Z,76.58
2023-02-25T20:22:55.586Z,76.99
2023-02-25T20:25:25.798Z,77.56
2023-02-25T20:27:54.574Z,77.12
2023-02-25T20:30:24.055Z,77.64
2023-02-25T20:32:52.573Z,77.43
2023-02-25T20:35:23.112Z,77.24
2023-02-25T20:38:09.990Z,77.33
2023-02-25T20:40:40.593Z,77.52
2023-02-25T20:43:13.820Z,77.64
2023-02-25T20:45:43.262Z,78.16
2023-02-25T20:48:29.225Z,78.11
2023-02-25T20:50:59.036Z,77.85
2023-02-25T20:53:28.515Z,78.36
2023-02-25T20:55:59.504Z,78.35
2023-02-25T20:58:28.365Z,78.12
2023-02-25T21:00:57.408Z,77.85
2023-02-25T21:03:26.303Z,77.33
2023-02-25T21:05:55.062Z,77.12
2023-02-25T21:08:23.918Z,77.77
2023-02-25T21:10:52.759Z,77.38
2023-02-25T21:13:22.944Z,76.72
2023-02-25T21:15:51.730Z,77.33
2023-02-25T21:18:20.529Z,77.58
2023-02-25T21:20:49.368Z,77.57
2023-02-25T21:23:18.106Z,76.88
2023-02-25T21:25:47.294Z,77.49
2023-02-25T21:28:15.958Z,76.73
2023-02-25T21:30:46.280Z,76.39
2023-02-25T21:33:16.094Z,77.62
2023-02-25T21:35:46.010Z,77.50
2023-02-25T21:38:14.796Z,77.81
2023-02-25T21:40:43.724Z,77.22
2023-02-25T21:43:12.519Z,77.43
2023-02-25T21:45:41.317Z,77.61
2023-02-25T21:48:11.572Z,77.69
2023-02-25T21:50:46.219Z,77.41
2023-02-25T21:53:15.133Z,77.84
2023-02-25T21:55:44.919Z,77.78
2023-02-25T21:58:14.072Z,77.58
2023-02-25T22:00:43.347Z,77.38
2023-02-25T22:03:13.476Z,78.36
2023-02-25T22:05:46.338Z,78.03
2023-02-25T22:08:15.313Z,77.46
2023-02-25T22:10:43.993Z,77.99
2023-02-25T22:13:12.824Z,77.34
2023-02-25T22:15:43.907Z,77.10
2023-02-25T22:18:14.344Z,77.31
2023-02-25T22:20:43.030Z,77.85
2023-02-25T22:23:11.779Z,76.83
2023-02-25T22:25:40.875Z,77.56
2023-02-25T22:28:09.801Z,76.50
2023-02-25T22:30:38.482Z,76.98
2023-02-25T22:33:07.307Z,77.30
2023-02-25T22:35:37.572Z,77.08
2023-02-25T22:38:06.720Z,76.86
2023-02-25T22:40:35.329Z,76.78
2023-02-25T22:43:04.160Z,77.08
2023-02-25T22:45:32.804Z,76.40
2023-02-25T22:48:01.530Z,77.10
2023-02-25T22:50:30.327Z,76.56
2023-02-25T22:53:00.485Z,76.31
2023-02-25T22:55:29.236Z,76.68
2023-02-25T22:57:57.890Z,76.22
2023-02-25T23:00:26.558Z,75.75
2023-02-25T23:02:55.644Z,75.14
2023-02-25T23:05:24.354Z,75.32
2023-02-25T23:08:00.834Z,75.86
2023-02-25T23:10:30.055Z,76.12
2023-02-25T23:12:59.353Z,76.56
2023-02-25T23:15:28.943Z,77.30
2023-02-25T23:17:57.580Z,77.34
2023-02-25T23:20:26.025Z,77.72
2023-02-25T23:22:55.073Z,77.38
2023-02-25T23:25:25.082Z,77.94
2023-02-25T23:27:53.584Z,77.44
2023-02-25T23:30:22.373Z,78.13
2023-02-25T23:32:50.865Z,78.33
2023-02-25T23:35:19.523Z,77.69
2023-02-25T23:37:48.319Z,77.20
2023-02-25T23:40:18.084Z,77.71
2023-02-25T23:42:47.731Z,77.49
2023-02-25T23:45:16.636Z,77.95
2023-02-25T23:47:45.132Z,78.39
2023-02-25T23:50:16.403Z,78.34
2023-02-25T23:52:45.377Z,77.48
2023-02-25T23:55:15.904Z,78.13
2023-02-25T23:57:44.533Z,77.96
